createdAt,value
2023-05-06T00:01:46.024Z,10.26
2023-05-06T00:04:12.529Z,10.28
2023-05-06T00:06:38.996Z,10.28
2023-05-06T00:09:05.491Z,10.30
2023-05-06T00:11:32.018Z,10.29
2023-05-06T00:13:58.516Z,10.32
2023-05-06T00:16:25.039Z,10.34
2023-05-06T00:18:51.562Z,10.33
2023-05-06T00:21:18.028Z,10.33
2023-05-06T00:23:44.527Z,10.34
2023-05-06T00:26:11.028Z,10.34
2023-05-06T00:28:37.493Z,10.34
2023-05-06T00:31:04.019Z,10.35
2023-05-06T00:33:30.689Z,10.36
2023-05-06T00:35:57.170Z,10.37
2023-05-06T00:38:23.836Z,10.37
2023-05-06T00:40:50.319Z,10.39
2023-05-06T00:43:16.822Z,10.41
2023-05-06T00:45:44.182Z,10.42
2023-05-06T00:48:10.918Z,10.43
2023-05-06T00:50:39.548Z,10.44
2023-05-06T00:53:08.890Z,10.37
2023-05-06T00:55:35.724Z,10.41
2023-05-06T00:58:02.716Z,10.40
2023-05-06T01:00:29.207Z,10.39
2023-05-06T01:02:56.684Z,10.36
2023-05-06T01:05:29.233Z,10.30
2023-05-06T01:08:08.080Z,10.33
2023-05-06T01:10:45.933Z,10.26
2023-05-06T01:13:34.338Z,10.28
2023-05-06T01:16:02.161Z,10.23
2023-05-06T01:18:31.793Z,10.15
2023-05-06T01:20:59.938Z,10.17
2023-05-06T01:23:26.848Z,10.14
2023-05-06T01:25:53.347Z,10.12
2023-05-06T01:28:19.800Z,10.10
2023-05-06T01:30:52.413Z,10.10
2023-05-06T01:33:26.326Z,10.07
2023-05-06T01:36:08.416Z,10.11
2023-05-06T01:38:41.104Z,10.04
2023-05-06T01:41:09.152Z,10.09
2023-05-06T01:43:41.378Z,10.07
2023-05-06T01:46:12.567Z,10.06
2023-05-06T01:48:40.673Z,10.04
2023-05-06T01:51:07.366Z,10.02
2023-05-06T01:53:33.907Z,10.01
2023-05-06T01:56:00.634Z,9.95
2023-05-06T01:58:27.191Z,9.96
2023-05-06T02:00:53.675Z,9.91
2023-05-06T02:03:20.330Z,9.90
2023-05-06T02:05:47.343Z,9.88
2023-05-06T02:08:13.929Z,9.87
2023-05-06T02:10:41.143Z,9.87
2023-05-06T02:13:10.405Z,9.86
2023-05-06T02:15:37.131Z,9.86
2023-05-06T02:18:05.320Z,9.88
2023-05-06T02:20:31.830Z,9.88
2023-05-06T02:22:58.537Z,9.88
2023-05-06T02:25:25.026Z,9.89
2023-05-06T02:27:51.517Z,9.89
2023-05-06T02:30:18.089Z,9.90
2023-05-06T02:32:44.605Z,9.91
2023-05-06T02:35:11.299Z,9.90
2023-05-06T02:37:37.987Z,9.90
2023-05-06T02:40:04.779Z,9.89
2023-05-06T02:42:33.599Z,9.88
2023-05-06T02:45:00.145Z,9.87
2023-05-06T02:47:26.650Z,9.86
2023-05-06T02:49:53.216Z,9.85
2023-05-06T02:52:19.669Z,9.84
2023-05-06T02:54:46.161Z,9.83
2023-05-06T02:57:12.667Z,9.84
2023-05-06T02:59:39.092Z,9.83
2023-05-06T03:02:05.574Z,9.82
2023-05-06T03:04:32.179Z,9.80
2023-05-06T03:06:58.746Z,9.81
2023-05-06T03:09:25.261Z,9.80
2023-05-06T03:11:51.866Z,9.78
2023-05-06T03:14:19.461Z,9.77
2023-05-06T03:16:45.941Z,9.80
2023-05-06T03:19:12.455Z,9.79
2023-05-06T03:21:39.546Z,9.80
2023-05-06T03:24:06.539Z,9.74
2023-05-06T03:26:34.460Z,9.80
2023-05-06T03:29:01.219Z,9.80
2023-05-06T03:31:27.785Z,9.81
2023-05-06T03:33:55.674Z,9.81
2023-05-06T03:36:22.607Z,9.82
2023-05-06T03:38:51.456Z,9.82
2023-05-06T03:41:18.093Z,9.82
2023-05-06T03:43:45.372Z,9.81
2023-05-06T03:46:12.988Z,9.79
2023-05-06T03:48:39.503Z,9.76
2023-05-06T03:51:10.168Z,9.74
2023-05-06T03:53:36.694Z,9.72
2023-05-06T03:56:04.130Z,9.66
2023-05-06T03:58:31.688Z,9.63
2023-05-06T04:00:58.924Z,9.61
2023-05-06T04:03:25.530Z,9.58
2023-05-06T04:05:52.104Z,9.56
2023-05-06T04:08:22.927Z,9.52
2023-05-06T04:10:49.468Z,9.51
2023-05-06T04:13:24.810Z,9.47
2023-05-06T04:15:51.944Z,9.47
2023-05-06T04:18:22.137Z,9.44
2023-05-06T04:21:01.338Z,9.44
2023-05-06T04:23:30.320Z,9.43
2023-05-06T04:25:58.231Z,9.45
2023-05-06T04:28:25.776Z,9.44
2023-05-06T04:30:54.368Z,9.39
2023-05-06T04:33:24.433Z,9.45
2023-05-06T04:35:53.524Z,9.45
2023-05-06T04:38:21.025Z,9.46
2023-05-06T04:40:48.582Z,9.46
2023-05-06T04:43:15.781Z,9.46
2023-05-06T04:45:44.149Z,9.47
2023-05-06T04:48:10.775Z,9.48
2023-05-06T04:50:37.396Z,9.51
2023-05-06T04:53:03.906Z,9.49
2023-05-06T04:55:30.492Z,9.57
2023-05-06T04:57:57.044Z,9.58
2023-05-06T05:00:23.481Z,9.59
2023-05-06T05:02:51.410Z,9.60
2023-05-06T05:05:18.263Z,9.61
2023-05-06T05:07:48.390Z,9.60
2023-05-06T05:10:15.089Z,9.60
2023-05-06T05:12:41.684Z,9.58
2023-05-06T05:15:08.977Z,9.59
2023-05-06T05:17:35.743Z,9.60
2023-05-06T05:20:02.543Z,9.61
2023-05-06T05:22:30.383Z,9.62
2023-05-06T05:24:56.942Z,9.64
2023-05-06T05:27:23.580Z,9.65
2023-05-06T05:29:50.894Z,9.69
2023-05-06T05:32:17.526Z,9.72
2023-05-06T05:34:44.044Z,9.76
2023-05-06T05:37:10.635Z,9.81
2023-05-06T05:39:37.186Z,9.85
2023-05-06T05:42:03.920Z,9.93
2023-05-06T05:44:31.577Z,9.99
2023-05-06T05:46:58.178Z,10.05
2023-05-06T05:49:24.757Z,10.12
2023-05-06T05:51:53.244Z,10.18
2023-05-06T05:54:21.388Z,10.24
2023-05-06T05:56:48.102Z,10.29
2023-05-06T05:59:15.373Z,10.34
2023-05-06T06:01:43.375Z,10.43
2023-05-06T06:04:10.376Z,10.48
2023-05-06T06:06:37.082Z,10.57
2023-05-06T06:09:03.888Z,10.64
2023-05-06T06:11:30.511Z,10.75
2023-05-06T06:13:58.156Z,10.82
2023-05-06T06:16:25.732Z,10.92
2023-05-06T06:18:53.473Z,10.99
2023-05-06T06:21:19.962Z,11.11
2023-05-06T06:23:47.019Z,11.19
2023-05-06T06:26:13.537Z,11.28
2023-05-06T06:28:40.151Z,11.37
2023-05-06T06:31:06.599Z,11.44
2023-05-06T06:33:33.105Z,11.55
2023-05-06T06:35:59.581Z,11.63
2023-05-06T06:38:26.038Z,11.75
2023-05-06T06:40:52.492Z,11.84
2023-05-06T06:43:18.990Z,11.96
2023-05-06T06:45:48.518Z,12.07
2023-05-06T06:48:15.352Z,12.15
2023-05-06T06:50:42.074Z,12.27
2023-05-06T06:53:09.700Z,12.34
2023-05-06T06:55:36.205Z,12.44
2023-05-06T06:58:03.114Z,12.56
2023-05-06T07:00:29.625Z,12.64
2023-05-06T07:02:56.215Z,12.74
2023-05-06T07:05:22.836Z,12.86
2023-05-06T07:07:49.360Z,12.92
2023-05-06T07:10:15.932Z,13.04
2023-05-06T07:12:42.465Z,13.13
2023-05-06T07:15:09.563Z,13.21
2023-05-06T07:17:36.268Z,13.33
2023-05-06T07:20:02.952Z,13.45
2023-05-06T07:22:29.436Z,13.54
2023-05-06T07:24:55.985Z,13.63
2023-05-06T07:27:22.489Z,13.76
2023-05-06T07:29:48.968Z,13.84
2023-05-06T07:32:15.406Z,13.93
2023-05-06T07:34:41.916Z,14.11
2023-05-06T07:37:08.370Z,14.15
2023-05-06T07:39:34.955Z,14.31
2023-05-06T07:42:02.914Z,14.41
2023-05-06T07:44:30.291Z,14.53
2023-05-06T07:46:57.084Z,14.68
2023-05-06T07:49:23.843Z,14.82
2023-05-06T07:51:50.590Z,14.93
2023-05-06T07:54:17.344Z,15.03
2023-05-06T07:56:44.075Z,15.16
2023-05-06T07:59:10.783Z,15.21
2023-05-06T08:01:37.420Z,15.37
2023-05-06T08:04:04.294Z,15.41
2023-05-06T08:06:31.028Z,15.57
2023-05-06T08:08:57.690Z,15.66
2023-05-06T08:11:24.481Z,15.71
2023-05-06T08:13:51.197Z,15.71
2023-05-06T08:16:17.937Z,15.69
2023-05-06T08:18:44.718Z,15.57
2023-05-06T08:21:11.171Z,15.73
2023-05-06T08:23:37.614Z,15.76
2023-05-06T08:26:04.154Z,15.80
2023-05-06T08:28:30.680Z,15.89
2023-05-06T08:30:57.371Z,15.96
2023-05-06T08:33:23.851Z,15.98
2023-05-06T08:35:51.429Z,16.03
2023-05-06T08:38:17.887Z,16.06
2023-05-06T08:40:45.067Z,16.03
2023-05-06T08:43:14.820Z,16.09
2023-05-06T08:45:41.968Z,16.14
2023-05-06T08:48:09.212Z,16.16
2023-05-06T08:50:40.606Z,16.15
2023-05-06T08:53:07.171Z,16.15
2023-05-06T08:55:34.795Z,16.14
2023-05-06T08:58:01.494Z,16.10
2023-05-06T09:00:28.006Z,16.09
2023-05-06T09:02:54.700Z,16.09
2023-05-06T09:05:21.227Z,16.07
2023-05-06T09:07:47.700Z,16.06
2023-05-06T09:10:14.641Z,16.08
2023-05-06T09:12:41.204Z,16.13
2023-05-06T09:15:09.557Z,16.08
2023-05-06T09:17:36.235Z,16.02
2023-05-06T09:20:03.064Z,16.00
2023-05-06T09:22:30.676Z,15.99
2023-05-06T09:24:58.308Z,15.97
2023-05-06T09:27:28.191Z,15.92
2023-05-06T09:30:05.716Z,15.79
2023-05-06T09:32:32.902Z,15.79
2023-05-06T09:34:59.552Z,15.79
2023-05-06T09:37:26.315Z,15.79
2023-05-06T09:39:57.572Z,15.77
2023-05-06T09:42:25.604Z,15.84
2023-05-06T09:44:54.836Z,15.93
2023-05-06T09:47:22.391Z,16.01
2023-05-06T09:49:48.884Z,16.07
2023-05-06T09:52:15.699Z,16.10
2023-05-06T09:54:42.789Z,16.12
2023-05-06T09:57:10.154Z,16.17
2023-05-06T09:59:37.105Z,16.19
2023-05-06T10:02:04.850Z,16.21
2023-05-06T10:04:35.192Z,16.27
2023-05-06T10:07:03.126Z,16.33
2023-05-06T10:09:30.030Z,16.32
2023-05-06T10:11:59.032Z,16.30
2023-05-06T10:14:25.504Z,16.36
2023-05-06T10:16:53.286Z,16.43
2023-05-06T10:19:23.796Z,16.56
2023-05-06T10:21:57.241Z,16.61
2023-05-06T10:24:32.395Z,16.68
2023-05-06T10:27:01.942Z,16.71
2023-05-06T10:29:29.124Z,16.70
2023-05-06T10:31:57.171Z,16.65
2023-05-06T10:34:25.546Z,16.67
2023-05-06T10:36:55.894Z,16.62
2023-05-06T10:39:22.988Z,16.55
2023-05-06T10:41:49.522Z,16.52
2023-05-06T10:44:16.260Z,16.42
2023-05-06T10:47:00.115Z,16.32
2023-05-06T10:49:26.891Z,16.22
2023-05-06T10:52:14.319Z,16.09
2023-05-06T10:54:51.282Z,16.14
2023-05-06T10:57:18.070Z,16.22
2023-05-06T10:59:46.227Z,16.27
2023-05-06T11:02:13.233Z,16.33
2023-05-06T11:04:40.127Z,16.37
2023-05-06T11:07:22.287Z,16.38
2023-05-06T11:09:55.960Z,16.48
2023-05-06T11:12:42.764Z,16.53
2023-05-06T11:15:25.874Z,16.52
2023-05-06T11:17:54.294Z,16.54
2023-05-06T11:20:23.351Z,16.53
2023-05-06T11:22:50.172Z,16.52
2023-05-06T11:25:38.898Z,16.56
2023-05-06T11:28:12.256Z,16.58
2023-05-06T11:30:43.531Z,16.47
2023-05-06T11:33:18.961Z,16.44
2023-05-06T11:35:45.716Z,16.38
2023-05-06T11:38:12.501Z,16.36
2023-05-06T11:40:41.483Z,16.35
2023-05-06T11:43:12.245Z,16.34
2023-05-06T11:45:47.178Z,16.24
2023-05-06T11:48:18.081Z,16.12
2023-05-06T11:50:49.093Z,15.97
2023-05-06T11:53:20.248Z,15.84
2023-05-06T11:55:48.196Z,15.74
2023-05-06T11:58:15.840Z,15.72
2023-05-06T12:00:51.355Z,15.71
2023-05-06T12:03:21.392Z,15.81
2023-05-06T12:05:49.279Z,15.81
2023-05-06T12:08:26.569Z,15.76
2023-05-06T12:10:56.814Z,15.75
2023-05-06T12:13:23.546Z,15.74
2023-05-06T12:15:50.692Z,15.72
2023-05-06T12:18:17.501Z,15.74
2023-05-06T12:20:44.327Z,15.75
2023-05-06T12:23:11.787Z,15.78
2023-05-06T12:25:39.749Z,15.77
2023-05-06T12:28:20.155Z,15.76
2023-05-06T12:30:46.810Z,15.76
2023-05-06T12:33:13.528Z,15.75
2023-05-06T12:35:40.946Z,15.71
2023-05-06T12:38:15.522Z,15.70
2023-05-06T12:40:43.826Z,15.69
2023-05-06T12:43:11.500Z,15.67
2023-05-06T12:45:38.679Z,15.66
2023-05-06T12:48:05.629Z,15.67
2023-05-06T12:50:33.254Z,15.69
2023-05-06T12:53:00.147Z,15.72
2023-05-06T12:55:27.023Z,15.73
2023-05-06T12:57:53.489Z,15.78
2023-05-06T13:00:20.603Z,15.82
2023-05-06T13:02:47.596Z,15.86
2023-05-06T13:05:14.226Z,15.89
2023-05-06T13:07:41.179Z,15.90
2023-05-06T13:10:08.288Z,15.94
2023-05-06T13:12:35.247Z,16.02
2023-05-06T13:15:02.192Z,16.08
2023-05-06T13:17:28.733Z,16.15
2023-05-06T13:19:58.423Z,16.24
2023-05-06T13:22:24.912Z,16.27
2023-05-06T13:24:51.381Z,16.29
2023-05-06T13:27:17.935Z,16.32
2023-05-06T13:29:44.435Z,16.34
2023-05-06T13:32:11.068Z,16.30
2023-05-06T13:34:37.564Z,16.29
2023-05-06T13:37:04.037Z,16.28
2023-05-06T13:39:30.546Z,16.25
2023-05-06T13:41:57.006Z,16.20
2023-05-06T13:44:23.469Z,16.13
2023-05-06T13:46:50.108Z,16.01
2023-05-06T13:49:17.946Z,15.93
2023-05-06T13:51:44.395Z,15.85
2023-05-06T13:54:10.943Z,15.78
2023-05-06T13:56:37.518Z,15.74
2023-05-06T13:59:04.091Z,15.67
2023-05-06T14:01:30.864Z,15.59
2023-05-06T14:03:57.391Z,15.54
2023-05-06T14:06:23.839Z,15.46
2023-05-06T14:08:50.379Z,15.40
2023-05-06T14:11:16.851Z,15.35
2023-05-06T14:13:43.349Z,15.28
2023-05-06T14:16:10.182Z,15.23
2023-05-06T14:18:36.656Z,15.23
2023-05-06T14:21:03.191Z,15.21
2023-05-06T14:23:29.717Z,15.17
2023-05-06T14:25:56.207Z,15.13
2023-05-06T14:28:22.728Z,15.10
2023-05-06T14:30:50.585Z,15.09
2023-05-06T14:33:17.128Z,15.05
2023-05-06T14:35:43.606Z,15.05
2023-05-06T14:38:10.615Z,15.03
2023-05-06T14:40:37.155Z,14.97
2023-05-06T14:43:03.643Z,14.93
2023-05-06T14:45:30.257Z,14.90
2023-05-06T14:47:57.068Z,14.85
2023-05-06T14:50:23.618Z,14.82
2023-05-06T14:52:50.140Z,14.82
2023-05-06T14:55:17.188Z,14.82
2023-05-06T14:57:43.653Z,14.79
2023-05-06T15:00:10.526Z,14.76
2023-05-06T15:02:44.862Z,14.73
2023-05-06T15:05:11.604Z,14.70
2023-05-06T15:07:38.342Z,14.68
2023-05-06T15:10:05.298Z,14.65
2023-05-06T15:12:31.879Z,14.62
2023-05-06T15:14:58.431Z,14.62
2023-05-06T15:17:24.941Z,14.61
2023-05-06T15:19:51.523Z,14.58
2023-05-06T15:22:18.041Z,14.59
2023-05-06T15:24:44.510Z,14.54
2023-05-06T15:27:10.989Z,14.51
2023-05-06T15:29:38.572Z,14.48
2023-05-06T15:32:05.503Z,14.44
2023-05-06T15:34:31.992Z,14.43
2023-05-06T15:36:58.491Z,14.39
2023-05-06T15:39:24.947Z,14.35
2023-05-06T15:41:51.403Z,14.31
2023-05-06T15:44:20.659Z,14.27
2023-05-06T15:46:47.851Z,14.23
2023-05-06T15:49:45.646Z,14.20
2023-05-06T15:52:01.227Z,14.18
2023-05-06T15:54:28.275Z,14.18
2023-05-06T15:56:54.766Z,14.18
2023-05-06T15:59:21.249Z,14.24
2023-05-06T16:02:18.946Z,14.27
2023-05-06T16:04:34.449Z,14.29
2023-05-06T16:07:01.957Z,14.31
2023-05-06T16:09:28.442Z,14.33
2023-05-06T16:11:54.989Z,14.34
2023-05-06T16:14:21.532Z,14.35
2023-05-06T16:16:47.977Z,14.37
2023-05-06T16:19:14.453Z,14.39
2023-05-06T16:21:40.909Z,14.39
2023-05-06T16:24:07.669Z,14.41
2023-05-06T16:26:34.129Z,14.42
2023-05-06T16:29:00.591Z,14.43
2023-05-06T16:31:27.087Z,14.44
2023-05-06T16:33:53.606Z,14.43
2023-05-06T16:36:20.039Z,14.43
2023-05-06T16:38:46.646Z,14.42
2023-05-06T16:41:13.086Z,14.42
2023-05-06T16:43:39.560Z,14.43
2023-05-06T16:46:06.209Z,14.44
2023-05-06T16:48:32.808Z,14.44
2023-05-06T16:50:59.319Z,14.43
2023-05-06T16:53:25.776Z,14.42
2023-05-06T16:55:52.258Z,14.38
2023-05-06T16:58:18.821Z,14.37
2023-05-06T17:00:45.316Z,14.35
2023-05-06T17:03:12.005Z,14.31
2023-05-06T17:05:38.805Z,14.29
2023-05-06T17:08:05.426Z,14.25
2023-05-06T17:10:31.967Z,14.24
2023-05-06T17:12:58.790Z,14.21
2023-05-06T17:15:25.411Z,14.21
2023-05-06T17:17:52.041Z,14.17
2023-05-06T17:20:18.835Z,14.14
2023-05-06T17:22:45.701Z,14.12
2023-05-06T17:25:12.182Z,14.10
2023-05-06T17:31:27.298Z,14.01
2023-05-06T17:33:54.216Z,13.97
2023-05-06T17:36:21.065Z,13.96
2023-05-06T17:38:48.372Z,13.94
2023-05-06T17:41:15.683Z,13.88
2023-05-06T17:43:42.266Z,13.82
2023-05-06T17:46:09.154Z,13.80
2023-05-06T17:48:35.725Z,13.77
2023-05-06T17:51:02.825Z,13.76
2023-05-06T17:53:36.991Z,13.75
2023-05-06T17:56:04.050Z,13.66
2023-05-06T17:58:30.865Z,13.73
2023-05-06T18:00:57.411Z,13.71
2023-05-06T18:03:24.314Z,13.71
2023-05-06T18:05:51.161Z,13.74
2023-05-06T18:08:18.200Z,13.72
2023-05-06T18:10:44.907Z,13.68
2023-05-06T18:13:11.497Z,13.66
2023-05-06T18:15:38.088Z,13.66
2023-05-06T18:18:04.929Z,13.62
2023-05-06T18:20:32.259Z,13.60
2023-05-06T18:22:58.765Z,13.62
2023-05-06T18:25:25.306Z,13.57
2023-05-06T18:27:51.866Z,13.60
2023-05-06T18:30:18.461Z,13.57
2023-05-06T18:32:45.200Z,13.61
2023-05-06T18:35:12.101Z,13.60
2023-05-06T18:37:39.009Z,13.58
2023-05-06T18:40:06.344Z,13.52
2023-05-06T18:42:34.014Z,13.52
2023-05-06T18:45:03.514Z,13.50
2023-05-06T18:47:30.019Z,13.49
2023-05-06T18:49:56.514Z,13.44
2023-05-06T18:52:23.227Z,13.44
2023-05-06T18:54:49.786Z,13.48
2023-05-06T18:57:16.305Z,13.43
2023-05-06T18:59:42.857Z,13.50
2023-05-06T19:02:09.402Z,13.46
2023-05-06T19:04:36.432Z,13.48
2023-05-06T19:07:03.044Z,13.46
2023-05-06T19:09:29.809Z,13.42
2023-05-06T19:11:56.373Z,13.43
2023-05-06T19:14:23.651Z,13.44
2023-05-06T19:16:52.219Z,13.41
2023-05-06T19:19:18.929Z,13.47
2023-05-06T19:21:47.970Z,13.44
2023-05-06T19:24:14.508Z,13.46
2023-05-06T19:26:41.035Z,13.43
2023-05-06T19:29:07.583Z,13.44
2023-05-06T19:31:34.395Z,13.42
2023-05-06T19:34:01.044Z,13.46
2023-05-06T19:36:27.587Z,13.42
2023-05-06T19:38:54.054Z,13.47
2023-05-06T19:41:20.556Z,13.49
2023-05-06T19:43:47.047Z,13.47
2023-05-06T19:46:14.014Z,13.52
2023-05-06T19:48:40.563Z,13.45
2023-05-06T19:51:07.581Z,13.47
2023-05-06T19:53:35.781Z,13.54
2023-05-06T19:56:13.201Z,13.48
2023-05-06T19:58:39.804Z,13.50
2023-05-06T20:01:06.476Z,13.54
2023-05-06T20:03:33.311Z,13.55
2023-05-06T20:05:59.955Z,13.57
2023-05-06T20:08:26.801Z,13.52
2023-05-06T20:10:53.667Z,13.55
2023-05-06T20:13:20.274Z,13.59
2023-05-06T20:15:46.955Z,13.55
2023-05-06T20:18:13.561Z,13.52
2023-05-06T20:20:40.176Z,13.58
2023-05-06T20:23:06.948Z,13.57
2023-05-06T20:25:33.601Z,13.57
2023-05-06T20:28:00.106Z,13.59
2023-05-06T20:30:26.808Z,13.62
2023-05-06T20:32:53.573Z,13.61
2023-05-06T20:35:20.222Z,13.57
2023-05-06T20:37:46.696Z,13.58
2023-05-06T20:40:13.669Z,13.63
2023-05-06T20:42:40.224Z,13.61
2023-05-06T20:45:07.465Z,13.62
2023-05-06T20:47:34.386Z,13.64
2023-05-06T20:50:01.425Z,13.64
2023-05-06T20:52:28.034Z,13.66
2023-05-06T20:54:54.518Z,13.68
2023-05-06T20:57:22.209Z,13.69
2023-05-06T20:59:48.742Z,13.71
2023-05-06T21:02:15.423Z,13.67
2023-05-06T21:04:42.243Z,13.70
2023-05-06T21:07:08.807Z,13.70
2023-05-06T21:09:35.674Z,13.66
2023-05-06T21:12:02.535Z,13.68
2023-05-06T21:14:29.072Z,13.71
2023-05-06T21:16:55.874Z,13.69
2023-05-06T21:19:22.424Z,13.66
2023-05-06T21:21:48.908Z,13.69
2023-05-06T21:24:15.485Z,13.69
2023-05-06T21:26:42.044Z,13.61
2023-05-06T21:29:08.593Z,13.66
2023-05-06T21:31:35.259Z,13.69
2023-05-06T21:34:01.957Z,13.70
2023-05-06T21:36:28.459Z,13.71
2023-05-06T21:39:06.343Z,13.70
2023-05-06T21:41:32.902Z,13.69
2023-05-06T21:43:59.416Z,13.71
2023-05-06T21:46:25.993Z,13.74
2023-05-06T21:48:52.748Z,13.67
2023-05-06T21:51:19.572Z,13.64
2023-05-06T21:53:50.288Z,13.71
2023-05-06T21:56:17.814Z,13.74
2023-05-06T21:58:44.589Z,13.73
2023-05-06T22:01:11.481Z,13.66
2023-05-06T22:03:38.120Z,13.61
2023-05-06T22:06:05.073Z,13.70
2023-05-06T22:08:31.654Z,13.64
2023-05-06T22:10:58.360Z,13.72
2023-05-06T22:13:25.675Z,13.73
2023-05-06T22:15:53.041Z,13.64
2023-05-06T22:18:19.725Z,13.67
2023-05-06T22:20:46.623Z,13.71
2023-05-06T22:23:13.355Z,13.71
2023-05-06T22:25:39.837Z,13.60
2023-05-06T22:28:06.426Z,13.66
2023-05-06T22:30:34.183Z,13.68
2023-05-06T22:33:00.699Z,13.70
2023-05-06T22:35:27.421Z,13.72
2023-05-06T22:37:54.562Z,13.69
2023-05-06T22:40:21.214Z,13.63
2023-05-06T22:42:47.950Z,13.64
2023-05-06T22:45:14.510Z,13.72
2023-05-06T22:47:41.259Z,13.71
2023-05-06T22:50:08.116Z,13.70
2023-05-06T22:52:34.717Z,13.67
2023-05-06T22:55:01.512Z,13.68
2023-05-06T22:57:28.042Z,13.68
2023-05-06T22:59:54.569Z,13.66
2023-05-06T23:02:21.293Z,13.67
2023-05-06T23:04:47.855Z,13.71
2023-05-06T23:07:15.117Z,13.71
2023-05-06T23:09:41.600Z,13.71
2023-05-06T23:12:08.104Z,13.68
2023-05-06T23:14:34.627Z,13.72
2023-05-06T23:17:01.216Z,13.71
2023-05-06T23:19:27.772Z,13.71
2023-05-06T23:21:54.287Z,13.68
2023-05-06T23:24:20.759Z,13.66
2023-05-06T23:26:47.249Z,13.58
2023-05-06T23:29:14.057Z,13.68
2023-05-06T23:31:40.638Z,13.63
2023-05-06T23:34:07.145Z,13.66
2023-05-06T23:36:34.063Z,13.63
2023-05-06T23:39:01.049Z,13.62
2023-05-06T23:41:27.872Z,13.66
2023-05-06T23:43:54.431Z,13.66
2023-05-06T23:46:21.117Z,13.61
2023-05-06T23:48:47.687Z,13.65
2023-05-06T23:51:14.212Z,13.67
2023-05-06T23:53:40.961Z,13.62
2023-05-06T23:56:07.656Z,13.61
2023-05-06T23:58:34.184Z,13.65
